Latest Weather Observations for Avalon

IDV60801

Issued at 10:52 am EDT Thursday 23 January 2020 (issued every 10 minutes, with the page automatically refreshed every 10 minutes)

About weather observations | Map of weather stations | Latest weather observations for VIC | Other Formats
Station Details ID: 087113 Name: AVALON AIRPORT Lat: -38.03 Lon: 144.48 Height: 10.6 m
Data from the previous 72 hours. | See also: Recent months at Avalon
Date/Time
EDT
Temp
°C
App
Temp
°C
Dew
Point
°C
Rel
Hum
%
Delta-T
°C
Wind Press
QNH
hPa
Press
MSL
hPa
Rain since
9am
mm
Dir  Spd
km/h
Gust
km/h
Spd
kts
Gust
kts
23/10:30am 17.5 13.3 14.6 83 1.7 N 30 35 16 19 996.3 996.3 0.0
23/10:00am 16.5 12.5 14.2 86 1.3 N 28 37 15 20 996.4 996.4 0.0
23/09:30am 15.1 13.5 15.1 100 0.0 N 17 24 9 13 996.7 996.7 0.0
23/09:00am 14.4 13.3 14.4 100 0.0 NNE 13 17 7 9 996.6 996.6 37.0
23/08:30am 13.4 12.8 13.4 100 0.0 NE 9 11 5 6 996.4 996.4 37.0
23/08:00am 13.1 14.1 13.1 100 0.0 CALM 0 6 0 3 996.5 996.5 36.8
23/07:33am 12.9 13.8 12.9 100 0.0 CALM 0 0 0 0 996.4 996.4 35.2
23/07:30am 12.9 13.8 12.9 100 0.0 CALM 0 0 0 0 996.3 996.3 35.0
23/07:00am 13.0 12.6 13.0 100 0.0 WSW 7 9 4 5 995.9 995.9 34.8
23/06:30am 12.8 12.3 12.8 100 0.0 NNW 7 11 4 6 995.8 995.8 34.6
23/06:00am 12.6 11.7 12.6 100 0.0 NNE 9 11 5 6 996.1 996.1 34.0
23/05:30am 12.4 11.4 12.4 100 0.0 NE 9 11 5 6 996.2 996.2 32.6
23/05:19am 12.2 12.9 12.2 100 0.0 CALM 0 0 0 0 996.2 996.2 32.4
23/05:00am 12.0 10.9 12.0 100 0.0 N 9 13 5 7 996.5 996.5 31.8
23/04:30am 12.1 11.0 12.1 100 0.0 NNE 9 13 5 7 996.8 996.8 30.8
23/04:02am 12.0 10.9 12.0 100 0.0 NNW 9 13 5 7 997.4 997.4 29.2
23/04:00am 12.0 10.9 12.0 100 0.0 NNW 9 13 5 7 997.4 997.4 29.2
23/03:30am 12.0 10.5 12.0 100 0.0 NW 11 15 6 8 998.0 998.0 26.6
23/03:00am 12.5 11.2 12.5 100 0.0 NW 11 15 6 8 998.4 998.4 21.6
23/02:55am 12.4 11.4 12.4 100 0.0 NW 9 13 5 7 998.1 998.1 20.8
23/02:53am 12.5 11.6 12.5 100 0.0 NW 9 13 5 7 997.9 997.9 20.6
23/02:30am 12.6 11.3 12.6 100 0.0 NW 11 15 6 8 998.4 998.4 18.4
23/02:00am 12.8 13.3 12.8 100 0.0 W 2 9 1 5 998.8 998.8 13.6
23/01:54am 12.8 13.7 12.8 100 0.0 CALM 0 0 0 0 998.6 998.6 12.8
23/01:30am 12.7 12.2 12.7 100 0.0 WSW 7 13 4 7 999.3 999.3 11.2
23/01:12am 12.6 11.7 12.6 100 0.0 WSW 9 13 5 7 999.7 999.7 10.0
23/01:01am 12.7 11.5 12.7 100 0.0 WSW 11 13 6 7 999.7 999.7 9.2
23/01:00am 12.6 11.3 12.6 100 0.0 WSW 11 13 6 7 999.7 999.7 9.2
23/12:30am 12.7 11.8 12.5 99 0.1 WSW 9 13 5 7 999.7 999.7 7.2
23/12:00am 13.1 11.9 12.9 99 0.1 W 11 17 6 9 1000.8 1000.8 5.4
 
Date/Time
EDT
Temp
°C
App
Temp
°C
Dew
Point
°C
Rel
Hum
%
Delta-T
°C
Wind Press
QNH
hPa
Press
MSL
hPa
Rain since
9am
mm
Dir  Spd
km/h
Gust
km/h
Spd
kts
Gust
kts
22/11:30pm 13.0 11.8 12.8 99 0.1 WNW 11 15 6 8 1000.7 1000.7 4.8
22/11:00pm 13.2 10.3 12.3 94 0.5 W 19 24 10 13 1000.8 1000.8 3.8
22/10:47pm 13.7 9.9 12.3 91 0.8 WSW 24 32 13 17 1000.5 1000.5 3.0
22/10:30pm 14.8 11.9 14.0 95 0.4 WSW 22 35 12 19 1000.4 1000.4 2.4
22/10:29pm 14.8 12.0 14.2 96 0.3 SW 22 35 12 19 1000.4 1000.4 2.4
22/10:00pm 15.4 13.3 15.2 99 0.1 W 20 28 11 15 1000.7 1000.7 1.4
22/09:30pm 15.7 14.1 15.1 96 0.3 SW 17 24 9 13 999.5 999.5 1.0
22/09:00pm 17.0 14.5 16.2 95 0.5 SW 24 30 13 16 1000.0 1000.0 0.0
22/08:30pm 17.5 13.8 15.1 86 1.4 S 28 35 15 19 998.2 998.2 0.0
22/08:00pm 18.0 13.8 15.6 86 1.4 SSW 32 41 17 22 998.7 998.7 0.0
22/07:30pm 18.8 14.4 15.1 79 2.2 SSW 32 41 17 22 998.0 998.0 0.0
22/07:00pm 19.1 14.0 14.8 76 2.5 SSW 35 44 19 24 997.1 997.1 0.0
22/06:30pm 19.6 12.3 14.4 72 3.0 SSW 46 65 25 35 996.9 996.9 0.0
22/06:21pm 21.4 12.9 13.1 59 4.7 W 50 72 27 39 996.2 996.2 0.0
22/06:18pm 25.6 17.3 11.4 41 8.0 NW 46 72 25 39 995.6 995.6 0.0
22/06:17pm 26.2 17.6 10.4 37 8.8 NNW 46 72 25 39 995.3 995.3 0.0
22/06:00pm 31.2 22.6 8.2 24 12.8 N 43 61 23 33 994.5 994.5 0.0
22/05:35pm 31.9 23.1 8.2 23 13.1 N 44 63 24 34 994.7 994.7 0.0
22/05:30pm 32.0 22.9 8.3 23 13.2 N 46 63 25 34 994.6 994.6 0.0
22/05:00pm 32.2 22.3 8.4 23 13.3 NNW 50 70 27 38 995.0 995.0 0.0
22/04:42pm 32.1 24.1 9.0 24 13.0 N 41 61 22 33 995.3 995.3 0.0
22/04:30pm 31.0 22.0 8.7 25 12.4 N 46 61 25 33 995.5 995.5 0.0
22/04:00pm 30.7 21.6 8.4 25 12.4 N 46 65 25 35 995.8 995.8 0.0
22/03:30pm 31.5 20.5 8.5 24 12.8 N 56 83 30 45 996.2 996.2 0.0
22/03:00pm 30.9 20.8 7.4 23 12.9 NNW 50 74 27 40 997.0 997.0 0.0
22/02:30pm 31.3 22.0 7.7 23 12.9 N 46 67 25 36 997.5 997.5 0.0
22/02:00pm 31.3 22.3 8.9 25 12.6 N 46 65 25 35 998.1 998.1 0.0
22/01:30pm 31.5 22.4 8.5 24 12.8 N 46 65 25 35 998.5 998.5 0.0
22/01:20pm 31.8 22.4 8.7 24 12.9 N 48 67 26 36 998.5 998.5 0.0
22/01:00pm 31.0 22.1 9.3 26 12.3 N 46 63 25 34 998.8 998.8 0.0
22/12:30pm 30.5 21.6 10.5 29 11.4 N 48 69 26 37 999.1 999.1 0.0
22/12:00pm 29.6 20.8 9.7 29 11.2 N 46 65 25 35 999.2 999.2 0.0
22/11:32am 29.5 22.2 11.5 33 10.4 N 41 59 22 32 999.6 999.6 0.0
22/11:30am 29.0 21.0 11.1 33 10.3 N 44 61 24 33 999.7 999.7 0.0
22/11:06am 28.6 20.4 10.3 32 10.3 N 44 69 24 37 999.9 999.9 0.0
22/11:00am 29.1 21.6 10.7 32 10.5 N 41 57 22 31 1000.1 1000.1 0.0
22/10:52am 28.1 20.7 11.2 35 9.7 N 41 59 22 32 1000.2 1000.2 0.0
22/10:30am 26.9 19.1 11.0 37 9.0 N 43 59 23 32 1000.0 1000.0 0.0
22/10:25am 26.7 19.2 10.8 37 9.0 N 41 59 22 32 1000.1 1000.1 0.0
22/10:00am 26.7 18.0 11.2 38 8.8 N 48 63 26 34 1000.7 1000.7 0.0
22/09:30am 25.5 18.4 10.9 40 8.2 N 39 65 21 35 1001.3 1001.3 0.0
22/09:16am 25.0 18.5 10.5 40 8.1 N 35 57 19 31 1001.3 1001.3 0.0
22/09:00am 24.6 16.8 9.7 39 8.2 N 41 57 22 31 1001.5 1001.5 0.0
22/08:38am 24.0 16.4 9.2 39 8.0 N 39 57 21 31 1001.2 1001.2 0.0
22/08:30am 23.7 16.1 8.9 39 7.9 N 39 54 21 29 1000.9 1000.9 0.0
22/08:07am 22.9 15.7 9.0 41 7.4 N 37 56 20 30 1001.2 1001.2 0.0
22/08:00am 23.0 15.8 9.0 41 7.5 N 37 52 20 28 1001.3 1001.3 0.0
22/07:30am 22.7 15.5 9.1 42 7.3 N 37 59 20 32 1001.5 1001.5 0.0
22/07:10am 21.5 15.8 9.7 47 6.4 N 30 48 16 26 1001.7 1001.7 0.0
22/07:00am 20.4 15.9 9.9 51 5.7 N 24 33 13 18 1001.9 1001.9 0.0
22/06:30am 17.9 13.1 10.3 61 4.1 NNE 26 35 14 19 1002.1 1002.1 0.0
22/06:00am 16.3 12.3 10.6 69 3.0 NNE 22 30 12 16 1002.6 1002.6 0.0
22/05:30am 15.4 11.5 10.8 74 2.4 NNE 22 30 12 16 1002.9 1002.9 0.0
22/05:00am 13.9 12.0 11.8 87 1.1 N 13 17 7 9 1003.4 1003.4 0.0
22/04:30am 13.9 12.1 12.1 89 1.0 NNE 13 19 7 10 1003.6 1003.6 0.0
22/04:00am 13.6 11.8 12.2 91 0.8 NNE 13 17 7 9 1003.9 1003.9 0.0
22/03:30am 13.2 11.7 11.8 91 0.7 NNE 11 13 6 7 1004.2 1004.2 0.0
22/03:00am 13.4 11.4 11.5 88 1.0 NNE 13 15 7 8 1004.5 1004.5 0.0
22/02:30am 13.1 10.8 11.7 91 0.7 N 15 17 8 9 1005.1 1005.1 0.0
22/02:00am 13.4 11.1 11.8 90 0.9 N 15 17 8 9 1005.5 1005.5 0.0
22/01:30am 12.6 11.3 11.2 91 0.7 NNE 9 13 5 7 1005.9 1005.9 0.0
22/01:00am 13.8 12.3 11.8 88 1.1 NNE 11 13 6 7 1006.3 1006.3 0.0
22/12:30am 13.9 12.0 11.8 87 1.1 NE 13 15 7 8 1006.6 1006.6 0.0
22/12:00am 14.3 12.5 12.0 86 1.2 NE 13 15 7 8 1006.9 1006.9 0.0
 
Date/Time
EDT
Temp
°C
App
Temp
°C
Dew
Point
°C
Rel
Hum
%
Delta-T
°C
Wind Press
QNH
hPa
Press
MSL
hPa
Rain since
9am
mm
Dir  Spd
km/h
Gust
km/h
Spd
kts
Gust
kts
21/11:30pm 15.0 13.2 12.0 82 1.6 ENE 13 15 7 8 1007.2 1007.2 0.0
21/11:00pm 14.2 13.1 11.9 86 1.2 ESE 9 11 5 6 1007.7 1007.7 0.0
21/10:30pm 14.0 13.1 11.3 84 1.4 ESE 7 9 4 5 1008.1 1008.1 0.0
21/10:00pm 14.3 13.1 11.5 83 1.5 ESE 9 11 5 6 1008.2 1008.2 0.0
21/09:30pm 14.5 13.2 11.1 80 1.8 SE 9 11 5 6 1008.1 1008.1 0.0
21/09:00pm 15.3 13.5 10.9 75 2.3 SE 11 13 6 7 1007.6 1007.6 0.0
21/08:30pm 16.3 13.7 10.8 70 2.9 SSE 15 19 8 10 1007.6 1007.6 0.0
21/08:00pm 17.2 13.8 10.6 65 3.5 S 19 26 10 14 1007.6 1007.6 0.0
21/07:30pm 17.9 13.5 10.5 62 4.0 S 24 30 13 16 1007.5 1007.5 0.0
21/07:00pm 18.5 14.2 10.6 60 4.3 S 24 33 13 18 1007.6 1007.6 0.0
21/06:30pm 18.7 13.8 10.0 57 4.6 SSE 26 32 14 17 1007.6 1007.6 0.0
21/06:00pm 19.3 15.0 10.6 57 4.7 S 24 35 13 19 1007.6 1007.6 0.0
21/05:30pm 19.7 15.8 10.7 56 4.9 SSE 22 32 12 17 1007.7 1007.7 0.0
21/05:00pm 19.8 15.9 10.8 56 4.9 SE 22 33 12 18 1007.7 1007.7 0.0
21/04:30pm 20.4 16.4 10.5 53 5.4 SSE 22 30 12 16 1008.0 1008.0 0.0
21/04:00pm 21.1 17.3 11.2 53 5.5 SSE 22 30 12 16 1007.9 1007.9 0.0
21/03:30pm 21.7 17.3 11.7 53 5.6 ESE 26 35 14 19 1008.1 1008.1 0.0
21/03:00pm 20.9 17.2 11.5 55 5.2 ESE 22 33 12 18 1008.5 1008.5 0.0
21/02:30pm 21.0 17.4 9.9 49 6.0 ESE 19 28 10 15 1008.7 1008.7 0.0
21/02:00pm 22.7 19.6 7.3 37 8.0 WSW 13 24 7 13 1008.9 1008.9 0.0
21/01:30pm 22.0 19.3 8.9 43 7.0 W 13 26 7 14 1009.2 1009.2 0.0
21/01:00pm 21.6 18.1 7.1 39 7.5 WSW 15 20 8 11 1009.8 1009.8 0.0
21/12:30pm 20.9 17.9 7.5 42 6.9 WNW 13 26 7 14 1010.2 1010.2 0.0
21/12:00pm 20.0 17.2 8.7 48 5.9 SSW 13 20 7 11 1010.2 1010.2 0.0
21/11:30am 19.0 16.6 8.6 51 5.4 SW 11 20 6 11 1010.5 1010.5 0.0
21/11:00am 18.5 16.2 9.0 54 5.0 WSW 11 17 6 9 1010.8 1010.8 0.0
21/10:30am 17.5 14.4 8.9 57 4.5 W 15 28 8 15 1010.9 1010.9 0.0
21/10:00am 17.3 14.3 7.9 54 4.8 SW 13 24 7 13 1011.1 1011.1 0.0
21/09:30am 16.6 12.9 9.3 62 3.8 W 19 26 10 14 1011.0 1011.0 0.0
21/09:00am 16.6 12.9 10.2 66 3.4 W 20 28 11 15 1010.8 1010.8 0.6
21/08:30am 15.7 12.0 10.2 70 2.9 W 20 26 11 14 1010.5 1010.5 0.6
21/08:00am 14.8 12.3 11.0 78 2.0 W 15 19 8 10 1010.2 1010.2 0.6
21/07:30am 13.5 11.1 11.4 87 1.1 WNW 15 19 8 10 1010.0 1010.0 0.6
21/07:00am 12.8 9.9 11.0 89 0.9 WNW 17 20 9 11 1009.5 1009.5 0.6
21/06:30am 12.8 9.9 10.9 88 1.0 WNW 17 20 9 11 1009.2 1009.2 0.6
21/06:00am 13.2 9.8 11.1 87 1.1 W 20 24 11 13 1009.1 1009.1 0.6
21/05:30am 13.7 10.9 11.2 85 1.3 W 17 22 9 12 1008.7 1008.7 0.6
21/05:00am 14.0 10.6 11.3 84 1.4 W 20 26 11 14 1008.3 1008.3 0.6
21/04:30am 14.2 10.8 11.2 82 1.6 W 20 26 11 14 1008.3 1008.3 0.6
21/04:00am 14.5 10.7 11.1 80 1.8 W 22 28 12 15 1008.2 1008.2 0.6
21/03:30am 14.6 11.5 11.6 82 1.6 W 19 22 10 12 1008.1 1008.1 0.6
21/03:00am 14.8 12.5 11.6 81 1.7 W 15 20 8 11 1008.1 1008.1 0.6
21/02:30am 14.8 12.5 11.8 82 1.6 W 15 22 8 12 1008.1 1008.1 0.6
21/02:00am 14.8 11.7 11.6 81 1.7 W 19 24 10 13 1008.3 1008.3 0.6
21/01:30am 14.9 12.3 11.9 82 1.6 W 17 20 9 11 1008.5 1008.5 0.6
21/01:00am 15.1 11.9 11.9 81 1.7 WSW 20 26 11 14 1008.5 1008.5 0.6
21/12:30am 15.4 12.3 12.2 81 1.7 WSW 20 28 11 15 1008.6 1008.6 0.6
21/12:00am 15.6 10.4 11.6 77 2.2 WSW 30 39 16 21 1008.6 1008.6 0.6
 
Date/Time
EDT
Temp
°C
App
Temp
°C
Dew
Point
°C
Rel
Hum
%
Delta-T
°C
Wind Press
QNH
hPa
Press
MSL
hPa
Rain since
9am
mm
Dir  Spd
km/h
Gust
km/h
Spd
kts
Gust
kts
20/11:30pm 15.5 10.5 12.3 81 1.7 WSW 30 37 16 20 1008.6 1008.6 0.6
20/11:00pm 15.4 11.0 12.9 85 1.4 WSW 28 35 15 19 1008.6 1008.6 0.6
20/10:30pm 15.5 11.4 13.9 90 0.9 WSW 28 35 15 19 1008.4 1008.4 0.6
20/10:08pm 15.5 11.6 14.4 93 0.6 WSW 28 35 15 19 1008.3 1008.3 0.6
20/10:00pm 15.5 12.2 14.9 96 0.3 WSW 26 33 14 18 1008.2 1008.2 0.6
20/09:30pm 15.5 12.7 15.3 99 0.1 WSW 24 32 13 17 1007.8 1007.8 0.6
20/09:00pm 15.3 11.7 15.3 100 0.0 SW 28 37 15 20 1007.4 1007.4 0.6
20/08:30pm 15.5 11.2 15.5 100 0.0 SW 32 41 17 22 1007.2 1007.2 0.4
20/08:00pm 15.7 11.3 15.7 100 0.0 SW 33 41 18 22 1006.8 1006.8 0.4
20/07:51pm 15.6 11.2 15.6 100 0.0 SW 33 43 18 23 1006.7 1006.7 0.4
20/07:30pm 15.5 11.0 15.5 100 0.0 SSW 33 39 18 21 1006.5 1006.5 0.4
20/07:00pm 15.4 10.9 15.4 100 0.0 SW 33 44 18 24 1006.2 1006.2 0.2
20/06:30pm 15.8 11.1 15.8 100 0.0 SSW 35 43 19 23 1005.7 1005.7 0.0
20/06:09pm 16.0 10.9 15.8 99 0.1 SSW 37 46 20 25 1005.4 1005.4 0.0
20/06:00pm 16.4 11.8 16.2 99 0.1 SSW 35 43 19 23 1005.3 1005.3 0.0
20/05:30pm 17.0 13.0 16.7 98 0.2 SSW 33 43 18 23 1005.2 1005.2 0.0
20/05:04pm 17.2 13.0 16.2 94 0.6 SSW 33 43 18 23 1005.0 1005.0 0.0
20/05:00pm 17.3 13.0 16.0 92 0.8 S 33 43 18 23 1005.0 1005.0 0.0
20/04:30pm 18.1 13.0 14.8 81 1.9 S 35 43 19 23 1004.9 1004.9 0.0
20/04:00pm 18.5 13.5 15.0 80 2.0 S 35 46 19 25 1005.0 1005.0 0.0
20/03:47pm 18.8 13.8 15.1 79 2.2 S 35 46 19 25 1004.8 1004.8 0.0
20/03:30pm 19.0 13.7 15.3 79 2.2 S 37 46 20 25 1004.8 1004.8 0.0
20/03:00pm 18.5 13.2 15.4 82 1.8 S 37 46 20 25 1005.0 1005.0 0.0
20/02:30pm 18.7 13.3 15.9 84 1.7 S 39 48 21 26 1004.9 1004.9 0.0
20/02:00pm 18.0 12.6 16.0 88 1.2 S 39 48 21 26 1005.0 1005.0 0.0
20/01:30pm 19.3 14.2 16.7 85 1.6 S 39 52 21 28 1004.8 1004.8 0.0
20/01:00pm 19.1 15.3 17.1 88 1.2 S 33 41 18 22 1005.0 1005.0 0.0
20/12:30pm 20.5 17.2 17.1 81 2.1 S 30 37 16 20 1005.2 1005.2 0.0
20/12:00pm 20.3 17.0 17.1 82 2.0 SSW 30 37 16 20 1005.3 1005.3 0.0
20/11:30am 21.5 18.9 17.9 80 2.2 S 28 35 15 19 1005.3 1005.3 0.0
20/11:12am 21.2 18.1 17.6 80 2.2 SSW 30 37 16 20 1005.2 1005.2 0.0
20/11:00am 21.5 17.9 17.7 79 2.4 S 33 41 18 22 1005.1 1005.1 0.0

Other formats

Comma delimited format used in spreadsheet applications
http://www.bom.gov.au/fwo/IDV60801/IDV60801.94854.axf

JavaScript Object Notation format (JSON) in row-major order
http://www.bom.gov.au/fwo/IDV60801/IDV60801.94854.json

Data quality

Most of these data are generated automatically and are frequently updated. Quality checks on data are not normally performed. It is possible for incorrect values to appear. Refer to information at About Latest Weather Observations and please check the disclaimer before using these data.